createdAt,value
2022-11-27T05:04:11.304Z,97.86
2022-11-27T05:08:23.437Z,97.96
2022-11-27T05:12:34.946Z,97.14
2022-11-27T05:16:54.781Z,96.62
2022-11-27T05:21:07.798Z,98.08
2022-11-27T05:25:19.225Z,98.18
2022-11-27T05:29:30.763Z,98.56
2022-11-27T05:33:42.215Z,98.23
2022-11-27T05:37:53.648Z,97.67
2022-11-27T05:42:05.126Z,97.51
2022-11-27T05:46:19.392Z,97.44
2022-11-27T05:50:30.913Z,97.29
2022-11-27T05:54:43.751Z,97.23
2022-11-27T05:58:55.197Z,97.16
2022-11-27T06:03:06.827Z,97.53
2022-11-27T06:07:18.737Z,97.38
2022-11-27T06:11:30.253Z,97.76
2022-11-27T06:15:42.287Z,97.49
2022-11-27T06:19:53.785Z,97.36
2022-11-27T06:24:05.554Z,97.24
2022-11-27T06:28:16.983Z,96.47
2022-11-27T06:32:29.479Z,97.47
2022-11-27T06:36:41.064Z,97.38
2022-11-27T06:40:52.578Z,97.65
2022-11-27T06:45:04.822Z,97.47
2022-11-27T06:49:16.485Z,97.29
2022-11-27T06:53:29.014Z,97.60
2022-11-27T06:57:40.611Z,97.31
2022-11-27T07:01:52.662Z,97.14
2022-11-27T07:06:09.538Z,97.17
2022-11-27T07:10:21.500Z,97.73
2022-11-27T07:14:34.768Z,97.02
2022-11-27T07:18:50.615Z,97.16
2022-11-27T07:23:13.240Z,97.75
2022-11-27T07:27:25.131Z,97.81
2022-11-27T07:31:37.137Z,97.31
2022-11-27T07:35:50.576Z,97.37
2022-11-27T07:40:03.567Z,96.75
2022-11-27T07:44:24.168Z,97.51
2022-11-27T07:48:36.120Z,96.96
2022-11-27T07:52:50.818Z,97.24
2022-11-27T07:57:02.605Z,98.00
2022-11-27T08:01:17.069Z,97.39
2022-11-27T08:05:29.524Z,97.65
2022-11-27T08:09:44.438Z,96.79
2022-11-27T08:13:59.892Z,100.00
2022-11-27T08:18:11.768Z,98.03
2022-11-27T08:22:26.745Z,94.83
2022-11-27T08:26:38.419Z,94.35
2022-11-27T08:31:00.565Z,94.60
2022-11-27T08:35:12.715Z,95.74
2022-11-27T08:39:26.462Z,95.40
2022-11-27T08:43:38.111Z,95.50
2022-11-27T08:47:49.637Z,95.16
2022-11-27T08:52:01.170Z,94.34
2022-11-27T08:56:18.654Z,94.41
2022-11-27T09:00:31.246Z,95.23
2022-11-27T09:04:43.113Z,95.86
2022-11-27T09:09:02.369Z,95.14
2022-11-27T09:13:13.938Z,94.57
2022-11-27T09:17:25.499Z,95.54
2022-11-27T09:21:38.777Z,95.24
2022-11-27T09:25:50.468Z,95.08
2022-11-27T09:30:02.198Z,94.25
2022-11-27T09:34:14.856Z,94.02
2022-11-27T09:38:26.394Z,93.31
2022-11-27T09:42:48.564Z,93.78
2022-11-27T09:47:10.081Z,92.28
2022-11-27T09:51:31.730Z,92.22
2022-11-27T09:55:49.957Z,92.79
2022-11-27T10:00:12.936Z,92.72
2022-11-27T10:04:25.138Z,92.74
2022-11-27T10:09:01.480Z,93.04
2022-11-27T10:13:35.005Z,92.58
2022-11-27T10:18:00.577Z,92.31
2022-11-27T10:26:54.835Z,91.01
2022-11-27T10:31:19.654Z,91.38
2022-11-27T10:35:32.851Z,90.66
2022-11-27T10:40:06.221Z,91.38
2022-11-27T10:44:31.603Z,90.48
2022-11-27T10:48:43.252Z,90.84
2022-11-27T10:53:05.245Z,89.63
2022-11-27T10:57:19.521Z,89.34
2022-11-27T11:01:43.670Z,88.33
2022-11-27T11:10:43.663Z,89.07
2022-11-27T11:15:00.472Z,87.62
2022-11-27T11:19:32.778Z,87.87
2022-11-27T11:23:46.875Z,87.21
2022-11-27T11:27:58.536Z,86.90
2022-11-27T11:32:20.742Z,86.11
2022-11-27T11:36:32.361Z,86.71
2022-11-27T11:40:56.652Z,86.56
2022-11-27T11:45:11.119Z,85.22
2022-11-27T11:49:27.301Z,85.69
2022-11-27T11:53:41.502Z,86.13
2022-11-27T11:57:53.021Z,84.94
2022-11-27T12:02:32.792Z,85.98
2022-11-27T12:07:12.650Z,85.65
2022-11-27T12:11:53.465Z,85.19
2022-11-27T12:16:26.485Z,85.10
2022-11-27T12:21:02.769Z,82.95
2022-11-27T12:25:43.793Z,83.96
2022-11-27T12:30:14.217Z,84.52
2022-11-27T12:34:40.048Z,84.42
2022-11-27T12:39:30.191Z,83.44
2022-11-27T12:43:50.171Z,84.15
2022-11-27T12:48:14.304Z,85.20
2022-11-27T12:52:32.796Z,84.28
2022-11-27T12:56:52.639Z,83.63
2022-11-27T13:01:12.443Z,84.15
2022-11-27T13:05:28.299Z,84.15
2022-11-27T13:09:49.897Z,83.52
2022-11-27T13:14:07.525Z,83.29
2022-11-27T13:18:26.527Z,83.25
2022-11-27T13:22:38.251Z,83.42
2022-11-27T13:27:06.361Z,83.70
2022-11-27T13:31:25.641Z,83.68
2022-11-27T13:35:42.653Z,83.79
2022-11-27T13:40:04.713Z,84.41
2022-11-27T13:44:28.566Z,84.93
2022-11-27T13:49:07.539Z,84.10
2022-11-27T13:53:30.438Z,83.65
2022-11-27T13:57:52.440Z,83.30
2022-11-27T14:02:07.189Z,83.53
2022-11-27T14:06:21.220Z,83.75
2022-11-27T14:10:33.016Z,83.73
2022-11-27T14:14:56.562Z,83.74
2022-11-27T14:19:33.561Z,82.75
2022-11-27T14:23:50.969Z,81.61
2022-11-27T14:28:25.942Z,83.20
2022-11-27T14:32:37.995Z,83.19
2022-11-27T14:36:52.855Z,82.69
2022-11-27T14:41:09.247Z,82.10
2022-11-27T14:45:22.225Z,84.20
2022-11-27T14:49:34.740Z,83.90
2022-11-27T14:53:48.622Z,83.64
2022-11-27T14:58:01.357Z,83.72
2022-11-27T15:02:12.811Z,84.25
2022-11-27T15:06:25.847Z,83.92
2022-11-27T15:10:40.313Z,84.56
2022-11-27T15:15:00.003Z,84.15
2022-11-27T15:19:24.224Z,84.14
2022-11-27T15:23:36.331Z,84.11
2022-11-27T15:27:48.106Z,84.11
2022-11-27T15:31:59.633Z,83.21
2022-11-27T15:36:16.984Z,85.03
2022-11-27T15:40:35.889Z,83.74
2022-11-27T15:44:49.035Z,84.34
2022-11-27T15:49:00.565Z,85.45
2022-11-27T15:53:12.070Z,85.47
2022-11-27T15:57:24.322Z,85.98
2022-11-27T16:01:36.810Z,85.51
2022-11-27T16:05:48.314Z,86.03
2022-11-27T16:10:00.018Z,86.39
2022-11-27T16:14:11.906Z,85.47
2022-11-27T16:18:23.406Z,86.68
2022-11-27T16:22:34.879Z,87.85
2022-11-27T16:26:46.495Z,87.17
2022-11-27T16:31:01.059Z,86.27
2022-11-27T16:35:12.660Z,85.40
2022-11-27T16:39:24.214Z,85.40
2022-11-27T16:43:45.216Z,84.66
2022-11-27T16:47:56.779Z,85.65
2022-11-27T16:52:10.814Z,86.08
2022-11-27T16:56:25.938Z,86.50
2022-11-27T17:00:38.409Z,85.77
2022-11-27T17:04:50.352Z,86.03
2022-11-27T17:09:04.907Z,86.14
2022-11-27T17:13:16.450Z,86.74
2022-11-27T17:17:28.227Z,87.47
2022-11-27T17:21:40.373Z,86.88
2022-11-27T17:25:52.015Z,86.82
2022-11-27T17:30:03.737Z,86.21
2022-11-27T17:34:17.127Z,86.35
2022-11-27T17:38:29.377Z,86.46
2022-11-27T17:42:40.906Z,86.50
2022-11-27T17:46:52.401Z,85.87
2022-11-27T17:51:04.602Z,86.51
2022-11-27T17:55:18.204Z,86.21
2022-11-27T17:59:29.753Z,85.89
2022-11-27T18:03:42.588Z,86.36
2022-11-27T18:07:54.252Z,87.19
2022-11-27T18:12:09.152Z,86.68
2022-11-27T18:16:24.254Z,85.74
2022-11-27T18:20:36.029Z,86.55
2022-11-27T18:24:47.534Z,86.97
2022-11-27T18:29:00.135Z,86.12
2022-11-27T18:33:11.671Z,87.48
2022-11-27T18:37:23.475Z,88.27
2022-11-27T18:41:35.005Z,88.42
2022-11-27T18:45:46.932Z,88.27
2022-11-27T18:49:59.676Z,87.41
2022-11-27T18:54:11.243Z,88.42
2022-11-27T18:58:22.924Z,88.67
2022-11-27T19:02:34.520Z,88.39
2022-11-27T19:06:46.407Z,88.23
2022-11-27T19:11:03.723Z,88.49
2022-11-27T19:15:15.775Z,88.37
2022-11-27T19:19:53.835Z,88.15
2022-11-27T19:24:01.202Z,89.07
2022-11-27T19:28:13.032Z,88.98
2022-11-27T19:32:24.603Z,88.99
2022-11-27T19:36:36.329Z,88.82
2022-11-27T19:40:48.414Z,89.76
2022-11-27T19:45:00.006Z,89.96
2022-11-27T19:49:16.451Z,89.96
2022-11-27T19:53:27.974Z,90.38
2022-11-27T19:57:39.513Z,90.45
2022-11-27T20:01:51.224Z,90.86
2022-11-27T20:06:17.139Z,91.08
2022-11-27T20:10:28.709Z,91.22
2022-11-27T20:14:40.782Z,90.93
2022-11-27T20:18:52.562Z,89.91
2022-11-27T20:23:04.083Z,90.53
2022-11-27T20:27:15.678Z,91.04
2022-11-27T20:31:29.792Z,91.13
2022-11-27T20:35:43.002Z,90.89
2022-11-27T20:39:54.502Z,91.84
2022-11-27T20:44:06.073Z,91.73
2022-11-27T20:48:17.815Z,91.10
2022-11-27T20:52:29.366Z,91.50
2022-11-27T20:56:46.552Z,91.44
2022-11-27T21:01:00.003Z,91.89
2022-11-27T21:05:11.832Z,92.10
2022-11-27T21:09:23.932Z,92.06
2022-11-27T21:13:35.487Z,92.41
2022-11-27T21:17:47.110Z,92.77
2022-11-27T21:21:58.729Z,92.46
2022-11-27T21:27:08.284Z,92.73
2022-11-27T21:32:14.907Z,93.23
2022-11-27T21:37:10.405Z,92.42
2022-11-27T21:48:14.860Z,93.19
2022-11-27T21:58:22.046Z,93.51
2022-11-27T22:02:33.848Z,93.32
2022-11-27T22:06:46.118Z,93.86
2022-11-27T22:10:57.670Z,93.46
2022-11-27T22:15:10.302Z,93.64
2022-11-27T22:19:21.887Z,93.86
2022-11-27T22:23:35.027Z,93.40
2022-11-27T22:27:47.091Z,93.98
